createdAt,value
2022-10-05T00:01:37.223Z,66.38
2022-10-05T00:04:43.564Z,65.83
2022-10-05T00:07:49.565Z,65.23
2022-10-05T00:10:56.079Z,64.86
2022-10-05T00:14:02.742Z,64.55
2022-10-05T00:17:11.866Z,64.27
2022-10-05T00:20:27.466Z,64.11
2022-10-05T00:23:34.403Z,63.84
2022-10-05T00:26:40.660Z,63.63
2022-10-05T00:29:47.304Z,63.60
2022-10-05T00:32:58.676Z,63.90
2022-10-05T00:36:07.559Z,64.16
2022-10-05T00:39:13.734Z,63.73
2022-10-05T00:42:38.693Z,63.42
2022-10-05T00:45:50.228Z,63.44
2022-10-05T00:49:05.137Z,63.45
2022-10-05T00:52:23.903Z,63.39
2022-10-05T00:55:42.176Z,63.46
2022-10-05T00:58:57.687Z,63.50
2022-10-05T01:02:13.993Z,64.46
2022-10-05T01:05:40.364Z,64.96
2022-10-05T01:08:59.583Z,64.67
2022-10-05T01:12:15.242Z,64.48
2022-10-05T01:15:26.552Z,64.81
2022-10-05T01:18:39.529Z,65.00
2022-10-05T01:21:54.635Z,65.49
2022-10-05T01:25:18.098Z,65.24
2022-10-05T01:28:29.838Z,65.08
2022-10-05T01:31:43.950Z,65.37
2022-10-05T01:34:58.957Z,65.25
2022-10-05T01:38:19.999Z,65.57
2022-10-05T01:41:35.738Z,65.74
2022-10-05T01:44:46.794Z,65.89
2022-10-05T01:47:58.376Z,65.75
2022-10-05T01:51:13.555Z,65.50
2022-10-05T01:54:33.752Z,65.57
2022-10-05T01:57:51.970Z,66.10
2022-10-05T02:01:06.474Z,65.92
2022-10-05T02:04:56.401Z,65.30
2022-10-05T02:07:54.127Z,64.81
2022-10-05T02:11:04.290Z,64.96
2022-10-05T02:14:13.555Z,65.29
2022-10-05T02:17:22.377Z,65.73
2022-10-05T02:20:33.130Z,66.06
2022-10-05T02:23:41.743Z,65.92
2022-10-05T02:26:49.399Z,65.98
2022-10-05T02:30:01.038Z,66.05
2022-10-05T02:33:12.372Z,66.04
2022-10-05T02:36:25.304Z,66.24
2022-10-05T02:39:40.059Z,66.53
2022-10-05T02:42:57.703Z,66.62
2022-10-05T02:46:15.411Z,66.46
2022-10-05T02:49:28.555Z,67.12
2022-10-05T02:52:46.509Z,67.69
2022-10-05T02:56:01.286Z,67.73
2022-10-05T02:59:14.927Z,67.52
2022-10-05T03:02:26.001Z,67.48
2022-10-05T03:05:38.942Z,67.33
2022-10-05T03:08:51.515Z,67.58
2022-10-05T03:12:06.815Z,67.52
2022-10-05T03:15:28.838Z,67.66
2022-10-05T03:18:55.196Z,67.78
2022-10-05T03:22:05.979Z,67.86
2022-10-05T03:25:37.496Z,67.90
2022-10-05T03:28:55.277Z,67.80
2022-10-05T03:32:09.280Z,67.46
2022-10-05T03:35:23.858Z,67.28
2022-10-05T03:38:40.573Z,67.39
2022-10-05T03:41:56.339Z,67.42
2022-10-05T03:45:10.446Z,67.33
2022-10-05T03:48:21.467Z,67.31
2022-10-05T03:51:33.506Z,67.10
2022-10-05T03:54:44.972Z,66.93
2022-10-05T03:57:53.812Z,66.78
2022-10-05T04:01:04.872Z,66.80
2022-10-05T04:04:20.445Z,67.00
2022-10-05T04:07:39.359Z,67.04
2022-10-05T04:10:50.489Z,67.14
2022-10-05T04:14:00.470Z,66.78
2022-10-05T04:17:12.648Z,67.46
2022-10-05T04:20:24.033Z,68.70
2022-10-05T04:23:39.966Z,68.46
2022-10-05T04:26:51.020Z,68.32
2022-10-05T04:30:00.239Z,68.43
2022-10-05T04:33:12.785Z,68.36
2022-10-05T04:36:28.252Z,68.34
2022-10-05T04:39:40.746Z,68.57
2022-10-05T04:42:57.766Z,68.63
2022-10-05T04:46:27.986Z,68.53
2022-10-05T04:50:00.373Z,68.42
2022-10-05T04:53:17.938Z,68.16
2022-10-05T04:56:32.171Z,68.12
2022-10-05T05:00:10.868Z,68.06
2022-10-05T05:03:39.642Z,67.94
2022-10-05T05:06:58.125Z,68.05
2022-10-05T05:10:45.192Z,68.07
2022-10-05T05:14:30.224Z,67.99
2022-10-05T05:17:56.162Z,68.13
2022-10-05T05:21:04.392Z,68.25
2022-10-05T05:24:20.868Z,68.50
2022-10-05T05:27:40.691Z,68.53
2022-10-05T05:30:50.942Z,68.27
2022-10-05T05:34:05.793Z,68.33
2022-10-05T05:37:23.453Z,68.38
2022-10-05T05:40:33.673Z,68.60
2022-10-05T05:44:01.284Z,68.65
2022-10-05T05:47:18.854Z,68.77
2022-10-05T05:50:42.749Z,68.86
2022-10-05T05:53:51.408Z,69.23
2022-10-05T05:57:09.158Z,69.44
2022-10-05T06:00:23.316Z,69.61
2022-10-05T06:03:37.343Z,70.03
2022-10-05T06:06:47.780Z,70.23
2022-10-05T06:10:00.140Z,70.23
2022-10-05T06:13:12.706Z,70.26
2022-10-05T06:16:25.789Z,70.69
2022-10-05T06:19:34.704Z,70.86
2022-10-05T06:22:45.004Z,71.36
2022-10-05T06:26:10.727Z,71.23
2022-10-05T06:29:22.231Z,71.50
2022-10-05T06:32:33.520Z,71.79
2022-10-05T06:35:51.658Z,71.63
2022-10-05T06:39:26.820Z,72.07
2022-10-05T06:43:18.032Z,72.24
2022-10-05T06:46:27.755Z,72.35
2022-10-05T06:49:38.628Z,72.57
2022-10-05T06:53:01.893Z,72.90
2022-10-05T06:56:15.169Z,73.19
2022-10-05T06:59:25.587Z,72.98
2022-10-05T07:02:41.100Z,72.88
2022-10-05T07:05:59.421Z,72.80
2022-10-05T07:09:27.936Z,72.92
2022-10-05T07:12:52.500Z,72.93
2022-10-05T07:16:05.718Z,73.33
2022-10-05T07:19:30.743Z,73.71
2022-10-05T07:23:08.130Z,73.88
2022-10-05T07:26:19.863Z,73.80
2022-10-05T07:29:34.924Z,73.26
2022-10-05T07:32:46.487Z,73.04
2022-10-05T07:36:17.858Z,72.95
2022-10-05T07:39:58.481Z,72.99
2022-10-05T07:43:07.738Z,72.42
2022-10-05T07:46:22.621Z,72.03
2022-10-05T07:49:38.897Z,71.72
2022-10-05T07:52:47.190Z,71.63
2022-10-05T07:55:55.963Z,70.81
2022-10-05T07:59:08.060Z,70.93
2022-10-05T08:02:25.302Z,70.54
2022-10-05T08:05:32.882Z,69.96
2022-10-05T08:08:50.515Z,68.21
2022-10-05T08:12:05.379Z,67.87
2022-10-05T08:15:17.127Z,66.98
2022-10-05T08:18:38.840Z,65.93
2022-10-05T08:21:49.639Z,65.94
2022-10-05T08:25:03.540Z,65.59
2022-10-05T08:28:19.886Z,65.11
2022-10-05T08:31:30.345Z,64.76
2022-10-05T08:34:47.201Z,64.34
2022-10-05T08:37:54.719Z,63.86
2022-10-05T08:41:23.735Z,64.13
2022-10-05T08:45:07.438Z,63.34
2022-10-05T08:48:43.509Z,62.72
2022-10-05T08:52:19.520Z,63.46
2022-10-05T08:55:39.665Z,62.73
2022-10-05T08:59:17.068Z,59.67
2022-10-05T09:02:29.647Z,58.42
2022-10-05T09:06:02.808Z,62.06
2022-10-05T09:09:28.325Z,61.56
2022-10-05T09:12:56.216Z,62.10
2022-10-05T09:16:37.273Z,61.24
2022-10-05T09:20:17.315Z,57.54
2022-10-05T09:23:39.344Z,57.82
2022-10-05T09:27:11.339Z,57.35
2022-10-05T09:30:24.635Z,60.71
2022-10-05T09:34:04.584Z,60.16
2022-10-05T09:37:31.167Z,59.35
2022-10-05T09:41:12.925Z,56.32
2022-10-05T09:45:04.637Z,57.67
2022-10-05T09:48:43.178Z,57.85
2022-10-05T09:52:16.419Z,58.70
2022-10-05T09:55:54.795Z,61.21
2022-10-05T09:59:27.933Z,61.14
2022-10-05T10:03:15.263Z,56.71
2022-10-05T10:10:19.413Z,58.46
2022-10-05T10:14:01.159Z,57.76
2022-10-05T10:17:30.923Z,57.32
2022-10-05T10:20:52.033Z,57.86
2022-10-05T10:24:06.544Z,59.31
2022-10-05T10:27:27.641Z,58.91
2022-10-05T10:30:55.587Z,58.75
2022-10-05T10:34:44.105Z,58.90
2022-10-05T10:38:28.685Z,60.49
2022-10-05T10:42:07.081Z,58.42
2022-10-05T10:45:38.906Z,57.48
2022-10-05T10:48:57.697Z,57.89
2022-10-05T10:52:23.245Z,58.58
2022-10-05T10:55:36.084Z,59.51
2022-10-05T10:59:05.881Z,58.22
2022-10-05T11:02:37.391Z,59.53
2022-10-05T11:06:03.899Z,58.97
2022-10-05T11:09:37.590Z,61.92
2022-10-05T11:13:18.276Z,61.86
2022-10-05T11:16:48.258Z,57.22
2022-10-05T11:20:13.473Z,56.79
2022-10-05T11:23:40.861Z,58.93
2022-10-05T11:27:03.735Z,60.03
2022-10-05T11:30:27.873Z,58.44
2022-10-05T11:33:58.139Z,58.01
2022-10-05T11:37:36.740Z,58.96
2022-10-05T11:41:02.599Z,58.36
2022-10-05T11:44:48.240Z,59.90
2022-10-05T11:48:18.148Z,58.75
2022-10-05T11:51:35.825Z,58.70
2022-10-05T11:55:11.984Z,58.79
2022-10-05T11:58:24.780Z,59.17
2022-10-05T12:01:35.230Z,59.42
2022-10-05T12:04:51.104Z,59.09
2022-10-05T12:08:11.865Z,59.04
2022-10-05T12:11:41.046Z,59.23
2022-10-05T12:14:59.211Z,58.98
2022-10-05T12:18:13.702Z,59.69
2022-10-05T12:21:30.913Z,60.47
2022-10-05T12:25:01.828Z,61.82
2022-10-05T12:28:14.027Z,60.77
2022-10-05T12:31:32.582Z,58.16
2022-10-05T12:34:52.829Z,57.56
2022-10-05T12:38:07.902Z,57.03
2022-10-05T12:41:23.673Z,58.41
2022-10-05T12:44:36.755Z,58.57
2022-10-05T12:47:57.051Z,58.61
2022-10-05T12:51:10.703Z,59.05
2022-10-05T12:54:25.151Z,58.32
2022-10-05T12:57:41.167Z,58.96
2022-10-05T13:00:57.464Z,59.31
2022-10-05T13:04:17.524Z,58.42
2022-10-05T13:07:40.407Z,57.96
2022-10-05T13:10:50.473Z,59.58
2022-10-05T13:14:09.478Z,60.08
2022-10-05T13:17:24.903Z,59.67
2022-10-05T13:20:35.419Z,60.53
2022-10-05T13:23:57.604Z,60.91
2022-10-05T13:27:08.585Z,61.52
2022-10-05T13:30:19.903Z,60.11
2022-10-05T13:33:37.920Z,58.03
2022-10-05T13:36:56.603Z,56.92
2022-10-05T13:40:25.656Z,57.30
2022-10-05T13:43:40.366Z,57.84
2022-10-05T13:46:50.190Z,57.68
2022-10-05T13:49:59.231Z,58.01
2022-10-05T13:53:18.182Z,58.37
2022-10-05T13:56:30.686Z,58.46
2022-10-05T13:59:45.670Z,58.97
2022-10-05T14:02:53.614Z,58.65
2022-10-05T14:06:02.181Z,58.34
2022-10-05T14:09:28.039Z,58.91
2022-10-05T14:12:42.561Z,59.01
2022-10-05T14:16:04.903Z,58.96
2022-10-05T14:19:22.028Z,58.72
2022-10-05T14:22:29.374Z,58.99
2022-10-05T14:25:53.985Z,58.83
2022-10-05T14:29:16.679Z,59.81
2022-10-05T14:32:27.196Z,59.20
2022-10-05T14:35:45.986Z,59.02
2022-10-05T14:39:00.832Z,59.25
2022-10-05T14:42:16.951Z,59.48
2022-10-05T14:45:25.995Z,60.56
2022-10-05T14:48:42.927Z,59.62
2022-10-05T14:51:49.416Z,59.29
2022-10-05T14:55:04.645Z,60.56
2022-10-05T14:58:29.344Z,60.20
2022-10-05T15:01:37.332Z,59.94
2022-10-05T15:04:50.047Z,60.72
2022-10-05T15:08:01.778Z,60.54
2022-10-05T15:11:12.971Z,61.16
2022-10-05T15:14:21.528Z,62.44
2022-10-05T15:17:35.116Z,62.42
2022-10-05T15:20:49.500Z,60.96
2022-10-05T15:23:58.737Z,58.72
2022-10-05T15:27:07.244Z,58.31
2022-10-05T15:30:18.293Z,59.77
2022-10-05T15:33:32.955Z,60.20
2022-10-05T15:36:44.504Z,60.42
2022-10-05T15:39:56.136Z,60.33
2022-10-05T15:43:11.618Z,60.34
2022-10-05T15:46:23.655Z,60.40
2022-10-05T15:49:40.469Z,61.35
2022-10-05T15:52:51.614Z,63.13
2022-10-05T15:56:01.367Z,63.33
2022-10-05T15:59:18.668Z,62.07
2022-10-05T16:02:30.878Z,59.40
2022-10-05T16:06:04.505Z,58.79
2022-10-05T16:09:24.719Z,58.56
2022-10-05T16:12:44.873Z,59.44
2022-10-05T16:15:59.504Z,60.08
2022-10-05T16:19:16.896Z,60.45
2022-10-05T16:22:29.736Z,60.45
2022-10-05T16:25:47.136Z,60.22
2022-10-05T16:29:01.374Z,61.04
2022-10-05T16:32:13.833Z,63.42
2022-10-05T16:35:32.159Z,63.69
2022-10-05T16:38:47.475Z,62.26
2022-10-05T16:42:04.020Z,62.39
2022-10-05T16:45:24.750Z,61.35
2022-10-05T16:48:36.430Z,58.84
2022-10-05T16:51:54.557Z,59.06
2022-10-05T16:55:04.007Z,59.10
2022-10-05T16:58:19.588Z,60.45
2022-10-05T17:01:43.850Z,61.00
2022-10-05T17:05:00.929Z,63.32
2022-10-05T17:08:27.929Z,63.66
2022-10-05T17:11:46.822Z,62.08
2022-10-05T17:15:10.355Z,62.16
2022-10-05T17:18:33.852Z,60.31
2022-10-05T17:21:46.991Z,58.08
2022-10-05T17:25:05.003Z,57.24
2022-10-05T17:28:37.567Z,58.56
2022-10-05T17:32:11.074Z,59.74
2022-10-05T17:35:20.486Z,60.07
2022-10-05T17:38:47.016Z,60.65
2022-10-05T17:41:54.160Z,63.08
2022-10-05T17:45:02.724Z,62.22
2022-10-05T17:48:12.320Z,60.54
2022-10-05T17:52:13.801Z,59.93
2022-10-05T17:55:38.500Z,57.72
2022-10-05T17:59:06.862Z,57.36
2022-10-05T18:02:26.826Z,58.50
2022-10-05T18:05:33.377Z,59.39
2022-10-05T18:08:44.130Z,59.62
2022-10-05T18:12:25.947Z,59.51
2022-10-05T18:15:50.352Z,60.39
2022-10-05T18:19:00.266Z,60.07
2022-10-05T18:22:30.390Z,60.71
2022-10-05T18:25:45.559Z,60.39
2022-10-05T18:29:14.128Z,62.44
2022-10-05T18:32:29.121Z,61.80
2022-10-05T18:35:47.076Z,60.26
2022-10-05T18:39:01.622Z,59.93
2022-10-05T18:42:15.975Z,57.89
2022-10-05T18:45:27.388Z,57.45
2022-10-05T18:48:41.511Z,57.75
2022-10-05T18:51:55.358Z,58.99
2022-10-05T18:55:12.205Z,58.95
2022-10-05T18:58:27.225Z,60.88
2022-10-05T19:02:12.179Z,60.33
2022-10-05T19:05:47.492Z,60.78
2022-10-05T19:09:04.014Z,62.83
2022-10-05T19:12:18.671Z,62.79
2022-10-05T19:15:31.184Z,61.24
2022-10-05T19:18:52.199Z,58.72
2022-10-05T19:22:08.148Z,58.11
2022-10-05T19:25:29.980Z,59.04
2022-10-05T19:28:40.000Z,59.13
2022-10-05T19:31:51.565Z,59.17
2022-10-05T19:35:14.378Z,60.06
2022-10-05T19:38:28.126Z,59.99
2022-10-05T19:41:52.176Z,59.74
2022-10-05T19:45:11.094Z,59.72
2022-10-05T19:48:28.271Z,60.68
2022-10-05T19:51:48.396Z,60.46
2022-10-05T19:55:12.668Z,61.62
2022-10-05T19:58:24.569Z,62.68
2022-10-05T20:01:34.142Z,61.72
2022-10-05T20:04:42.322Z,61.14
2022-10-05T20:07:48.607Z,60.19
2022-10-05T20:11:10.917Z,58.48
2022-10-05T20:14:30.042Z,57.23
2022-10-05T20:17:53.773Z,58.72
2022-10-05T20:21:00.743Z,60.09
2022-10-05T20:24:15.639Z,60.54
2022-10-05T20:27:48.554Z,60.84
2022-10-05T20:30:55.486Z,61.51
2022-10-05T20:34:03.173Z,63.89
2022-10-05T20:37:09.561Z,63.20
2022-10-05T20:40:17.982Z,62.65
2022-10-05T20:43:24.218Z,61.12
2022-10-05T20:46:31.132Z,60.19
2022-10-05T20:49:38.339Z,58.85
2022-10-05T20:52:44.619Z,58.71
2022-10-05T20:55:50.820Z,60.08
2022-10-05T20:58:56.963Z,60.50
2022-10-05T21:02:01.845Z,60.82
2022-10-05T21:05:09.857Z,61.55
2022-10-05T21:08:17.962Z,63.25
2022-10-05T21:11:24.229Z,63.93
2022-10-05T21:14:34.463Z,63.14
2022-10-05T21:17:40.822Z,61.87
2022-10-05T21:20:50.711Z,61.19
2022-10-05T21:23:56.974Z,61.02
2022-10-05T21:27:03.280Z,60.03
2022-10-05T21:30:11.366Z,58.85
2022-10-05T21:33:17.644Z,58.90
2022-10-05T21:36:24.796Z,60.22
2022-10-05T21:39:31.247Z,60.95
2022-10-05T21:42:37.515Z,61.74
2022-10-05T21:45:45.060Z,64.36
2022-10-05T21:48:51.818Z,64.40
2022-10-05T21:51:58.030Z,63.44
2022-10-05T21:55:04.972Z,62.36
2022-10-05T21:58:12.683Z,61.56
2022-10-05T22:01:22.675Z,61.26
2022-10-05T22:04:29.444Z,60.83
2022-10-05T22:07:36.343Z,61.03
2022-10-05T22:10:43.982Z,60.27
2022-10-05T22:13:51.439Z,58.79
2022-10-05T22:16:57.571Z,59.26
2022-10-05T22:20:02.352Z,59.77
2022-10-05T22:23:08.488Z,60.13
2022-10-05T22:26:14.400Z,63.11
2022-10-05T22:29:21.612Z,64.19
2022-10-05T22:32:27.938Z,62.99
2022-10-05T22:35:35.844Z,62.27
2022-10-05T22:38:42.032Z,61.68
2022-10-05T22:41:46.547Z,60.59
2022-10-05T22:44:52.692Z,60.14
2022-10-05T22:47:57.220Z,59.57
2022-10-05T22:51:03.491Z,58.69
2022-10-05T22:54:09.711Z,58.54
2022-10-05T22:57:15.929Z,59.88
2022-10-05T23:00:27.573Z,61.27
2022-10-05T23:03:34.897Z,64.15
2022-10-05T23:06:41.077Z,64.74
2022-10-05T23:09:45.691Z,63.81
2022-10-05T23:13:00.993Z,62.67
2022-10-05T23:16:11.910Z,62.09
2022-10-05T23:19:18.224Z,61.95
2022-10-05T23:22:25.437Z,61.60
2022-10-05T23:25:31.655Z,61.55
2022-10-05T23:28:36.261Z,60.99
2022-10-05T23:31:42.458Z,60.94
2022-10-05T23:34:46.902Z,60.43
2022-10-05T23:37:53.025Z,61.05
2022-10-05T23:40:58.162Z,60.65
2022-10-05T23:44:04.349Z,60.35
2022-10-05T23:47:08.873Z,59.99
2022-10-05T23:50:14.976Z,60.01
2022-10-05T23:53:19.810Z,60.19
2022-10-05T23:56:26.018Z,60.43
2022-10-05T23:59:30.559Z,60.16
